Time;durP1;ratioP1;P1;durP2;ratioP2;P2;SDS_P1;SDS_P2;PMS_P1;PMS_P2;Temp;Humidity;BMP_temperature;BMP_pressure;BME280_temperature;BME280_humidity;BME280_pressure;Samples;Min_cycle;Max_cycle;Signal;HPM_P1;HPM_P2
2022/11/13 08:58:59;;;;;;;4.43;3.03;;;8.90;99.90;;;;;;4676619;23;20633;-80
2022/11/13 09:01:25;;;;;;;4.30;2.73;;;8.90;99.90;;;;;;4915496;29;20225;-78
2022/11/13 09:03:52;;;;;;;4.87;3.17;;;8.90;99.90;;;;;;4935595;29;20212;-80
2022/11/13 09:06:19;;;;;;;4.27;2.80;;;9.00;99.90;;;;;;4939179;29;20243;-83
2022/11/13 09:08:46;;;;;;;5.97;2.73;;;9.00;99.90;;;;;;4941848;29;20212;-82
2022/11/13 09:11:12;;;;;;;5.37;2.87;;;9.00;99.90;;;;;;4943899;29;20228;-84
2022/11/13 09:13:39;;;;;;;5.67;3.23;;;9.10;99.90;;;;;;4944241;29;20205;-81
2022/11/13 09:16:08;;;;;;;4.73;2.83;;;9.20;99.90;;;;;;4929161;29;20221;-81
2022/11/13 09:18:35;;;;;;;7.93;4.10;;;9.20;99.90;;;;;;4921676;29;20221;-80
2022/11/13 09:21:03;;;;;;;6.73;3.43;;;9.30;99.90;;;;;;4920510;29;20206;-83
2022/11/13 09:23:29;;;;;;;5.50;3.13;;;9.40;99.90;;;;;;4920204;29;20220;-78
2022/11/13 09:25:56;;;;;;;4.97;3.30;;;9.60;99.90;;;;;;4919722;29;20301;-77
2022/11/13 09:28:23;;;;;;;4.63;2.93;;;9.70;99.90;;;;;;4918211;29;20248;-79
2022/11/13 09:30:50;;;;;;;5.30;3.17;;;9.80;99.90;;;;;;4920890;29;20216;-83
2022/11/13 09:33:18;;;;;;;5.20;3.07;;;10.00;99.90;;;;;;4920618;29;20214;-79
2022/11/13 09:35:45;;;;;;;5.90;3.27;;;10.20;99.90;;;;;;4918376;29;20237;-82
2022/11/13 09:38:13;;;;;;;4.57;2.90;;;10.30;99.90;;;;;;4918604;29;20213;-81
2022/11/13 09:40:46;;;;;;;4.97;2.70;;;10.20;99.90;;;;;;4920782;29;20214;-85
2022/11/13 09:43:23;;;;;;;4.60;2.73;;;10.00;99.90;;;;;;4938009;29;20205;-83
2022/11/13 09:45:51;;;;;;;4.27;2.43;;;9.90;99.90;;;;;;4937715;29;20250;-82
2022/11/13 09:48:26;;;;;;;5.87;3.03;;;9.90;99.90;;;;;;4937639;29;20244;-79
2022/11/13 09:50:54;;;;;;;4.33;2.80;;;10.10;99.90;;;;;;4938836;29;20204;-74
2022/11/13 09:53:21;;;;;;;6.03;3.40;;;10.30;99.90;;;;;;4900850;29;20205;-79
2022/11/13 09:55:56;;;;;;;6.30;3.10;;;10.40;99.90;;;;;;4913357;29;20280;-77
2022/11/13 09:58:29;;;;;;;6.40;3.43;;;10.50;99.90;;;;;;4918004;29;20231;-72
2022/11/13 10:00:58;;;;;;;6.53;3.43;;;10.70;99.90;;;;;;4918130;29;20220;-75
2022/11/13 10:03:36;;;;;;;4.93;2.97;;;10.90;99.90;;;;;;4918076;29;20210;-74
2022/11/13 10:06:13;;;;;;;4.00;3.07;;;11.00;99.90;;;;;;4917901;29;20578;-73
2022/11/13 10:08:49;;;;;;;5.37;3.00;;;10.80;99.90;;;;;;4917758;29;20332;-72
2022/11/13 10:11:25;;;;;;;5.03;3.10;;;10.90;99.90;;;;;;4918061;29;20217;-76
2022/11/13 10:13:56;;;;;;;4.27;2.50;;;10.90;99.90;;;;;;4918208;29;20217;-76
2022/11/13 10:16:32;;;;;;;5.63;3.20;;;10.80;99.90;;;;;;4917932;29;20232;-73
2022/11/13 10:19:09;;;;;;;5.60;2.90;;;10.90;99.90;;;;;;4917998;29;20664;-75
2022/11/13 10:21:42;;;;;;;4.13;2.40;;;11.10;99.90;;;;;;4917515;29;20219;-74
2022/11/13 10:24:18;;;;;;;4.63;2.37;;;11.10;99.90;;;;;;4917729;29;20254;-73
2022/11/13 10:26:45;;;;;;;4.20;2.13;;;11.10;99.90;;;;;;4917664;29;20625;-75
2022/11/13 10:29:14;;;;;;;3.70;2.23;;;11.20;99.90;;;;;;4917637;29;20210;-76
2022/11/13 10:31:43;;;;;;;3.50;2.20;;;11.30;99.90;;;;;;4917566;29;20210;-72
2022/11/13 10:34:12;;;;;;;4.13;2.47;;;11.30;99.90;;;;;;4917672;29;20235;-75
2022/11/13 10:36:49;;;;;;;3.50;2.27;;;11.60;99.90;;;;;;4917624;29;20261;-71
2022/11/13 10:39:16;;;;;;;3.80;2.10;;;11.40;99.90;;;;;;4917618;29;20268;-75
2022/11/13 10:41:47;;;;;;;4.00;2.30;;;11.40;99.90;;;;;;4917550;29;20216;-73
2022/11/13 10:44:30;;;;;;;4.10;2.43;;;11.50;99.90;;;;;;4917144;29;20225;-70
2022/11/13 10:47:13;;;;;;;3.17;2.00;;;11.70;99.90;;;;;;4914971;29;20226;-75
2022/11/13 10:49:41;;;;;;;2.80;1.93;;;11.70;99.90;;;;;;4916669;29;20214;-76
2022/11/13 10:52:18;;;;;;;4.10;2.47;;;11.70;99.90;;;;;;4916955;29;20202;-73
2022/11/13 10:54:45;;;;;;;3.43;1.93;;;11.80;99.90;;;;;;4916767;29;20813;-72
2022/11/13 10:57:27;;;;;;;2.93;1.60;;;11.90;99.90;;;;;;4916131;29;20213;-70
2022/11/13 10:59:55;;;;;;;2.83;1.90;;;11.90;99.90;;;;;;4916237;29;20217;-81
2022/11/13 11:02:23;;;;;;;2.90;2.07;;;12.00;99.90;;;;;;4915404;29;20217;-68
2022/11/13 11:05:01;;;;;;;3.80;1.93;;;12.00;99.90;;;;;;4916082;29;20205;-79
2022/11/13 11:07:28;;;;;;;4.47;2.00;;;12.10;99.90;;;;;;4916611;29;20609;-77
2022/11/13 11:09:55;;;;;;;2.90;2.00;;;12.20;99.90;;;;;;4916890;29;20213;-67
2022/11/13 11:12:23;;;;;;;4.63;2.00;;;12.20;99.90;;;;;;4917028;29;20216;-76
2022/11/13 11:15:18;;;;;;;3.27;2.17;;;12.30;99.90;;;;;;4916888;29;20210;-68
2022/11/13 11:17:49;;;;;;;3.43;2.20;;;12.20;99.90;;;;;;4914821;29;20320;-69
2022/11/13 11:20:23;;;;;;;2.70;1.70;;;12.40;99.90;;;;;;4916952;29;20213;-71
2022/11/13 11:22:55;;;;;;;2.70;2.00;;;12.30;99.90;;;;;;4916480;29;20537;-73
2022/11/13 11:25:31;;;;;;;2.33;1.60;;;12.30;99.90;;;;;;4916943;29;20663;-72
2022/11/13 11:28:04;;;;;;;2.70;1.77;;;12.40;99.90;;;;;;4916366;29;20627;-71
2022/11/13 11:30:39;;;;;;;3.00;2.00;;;12.50;99.90;;;;;;4916603;29;20682;-71
2022/11/13 11:33:12;;;;;;;2.30;1.60;;;12.60;99.90;;;;;;4916436;29;20669;-74
2022/11/13 11:35:44;;;;;;;3.50;2.20;;;12.60;99.90;;;;;;4916624;29;20248;-73
2022/11/13 11:38:24;;;;;;;3.07;2.00;;;12.80;99.90;;;;;;4916501;29;20217;-72
2022/11/13 11:40:55;;;;;;;3.23;2.03;;;12.80;99.90;;;;;;4916726;29;20209;-73
2022/11/13 11:43:29;;;;;;;4.67;2.43;;;12.90;99.90;;;;;;4915849;29;20220;-71
2022/11/13 11:45:55;;;;;;;3.23;2.27;;;12.90;99.90;;;;;;4916339;29;20584;-71
2022/11/13 11:48:26;;;;;;;3.10;2.10;;;12.90;99.90;;;;;;4916288;29;20243;-71
2022/11/13 11:51:03;;;;;;;3.00;1.97;;;13.00;99.90;;;;;;4915836;29;20206;-73
2022/11/13 11:53:42;;;;;;;3.53;2.00;;;13.20;99.90;;;;;;4897944;29;20214;-72
2022/11/13 11:56:19;;;;;;;2.40;1.83;;;13.20;99.90;;;;;;4897268;29;20739;-73
2022/11/13 11:59:02;;;;;;;3.93;1.90;;;13.20;99.90;;;;;;4897100;29;20232;-73
2022/11/13 12:01:44;;;;;;;3.40;2.10;;;13.20;99.90;;;;;;4897594;29;20216;-74
2022/11/13 12:04:19;;;;;;;3.80;2.10;;;13.10;99.90;;;;;;4897739;29;20211;-76
2022/11/13 12:07:02;;;;;;;3.60;2.10;;;13.30;99.90;;;;;;4897652;29;20236;-74
2022/11/13 12:09:31;;;;;;;1.97;1.37;;;13.30;99.90;;;;;;4897234;29;20790;-74
2022/11/13 12:12:05;;;;;;;1.97;1.40;;;13.30;99.90;;;;;;4897451;29;20214;-73
2022/11/13 12:14:43;;;;;;;2.90;1.40;;;13.40;99.90;;;;;;4900140;29;20210;-74
2022/11/13 12:17:27;;;;;;;2.67;1.83;;;13.40;99.90;;;;;;4901057;29;20214;-73
2022/11/13 12:20:03;;;;;;;2.23;1.77;;;13.50;99.90;;;;;;4901149;29;20214;-74
2022/11/13 12:22:42;;;;;;;2.77;1.60;;;13.40;99.90;;;;;;4900123;29;20229;-75
2022/11/13 12:25:18;;;;;;;2.90;1.67;;;13.50;99.90;;;;;;4910540;29;20720;-74
2022/11/13 12:27:53;;;;;;;2.00;1.40;;;13.50;99.90;;;;;;4907464;29;20234;-76
2022/11/13 12:30:22;;;;;;;2.73;1.53;;;13.60;99.90;;;;;;4915526;29;20212;-77
2022/11/13 12:33:03;;;;;;;2.30;1.73;;;13.50;99.90;;;;;;4913026;29;20210;-77
2022/11/13 12:35:29;;;;;;;2.37;1.30;;;13.60;99.90;;;;;;4907027;29;20240;-78
2022/11/13 12:38:04;;;;;;;3.60;1.50;;;13.80;99.90;;;;;;4906499;29;20216;-77
2022/11/13 12:40:37;;;;;;;2.33;1.40;;;13.90;99.90;;;;;;4907450;29;20205;-77
2022/11/13 12:43:22;;;;;;;2.30;1.20;;;13.90;99.90;;;;;;4913775;29;20217;-76
2022/11/13 12:45:51;;;;;;;2.73;1.50;;;13.90;99.90;;;;;;4918132;29;20236;-70
2022/11/13 12:48:27;;;;;;;2.53;1.53;;;14.00;99.90;;;;;;4910888;29;20234;-75
2022/11/13 12:51:00;;;;;;;3.47;1.67;;;14.00;99.90;;;;;;4908841;29;20265;-75
2022/11/13 12:53:30;;;;;;;2.03;1.30;;;14.00;99.90;;;;;;4911050;29;20680;-76
2022/11/13 12:55:59;;;;;;;2.07;1.50;;;14.00;99.90;;;;;;4912601;29;20237;-77
2022/11/13 12:58:29;;;;;;;3.33;1.80;;;14.00;99.90;;;;;;4913807;29;20217;-75
2022/11/13 13:01:00;;;;;;;2.70;1.73;;;14.10;99.90;;;;;;4911620;29;20217;-75
2022/11/13 13:03:45;;;;;;;2.40;1.70;;;14.20;99.90;;;;;;4915385;29;20308;-75
2022/11/13 13:06:24;;;;;;;2.70;1.73;;;14.20;99.90;;;;;;4913331;29;20221;-69
2022/11/13 13:09:05;;;;;;;2.57;1.60;;;14.30;99.90;;;;;;4906327;29;20238;-75
2022/11/13 13:11:41;;;;;;;1.83;1.40;;;14.30;99.90;;;;;;4912247;29;20304;-77
2022/11/13 13:14:22;;;;;;;2.37;1.40;;;14.30;99.90;;;;;;4905848;29;20662;-75
2022/11/13 13:16:49;;;;;;;2.37;1.50;;;14.30;99.90;;;;;;4912627;29;20293;-74
2022/11/13 13:19:27;;;;;;;3.20;1.90;;;14.40;99.90;;;;;;4912678;29;20221;-71
2022/11/13 13:21:54;;;;;;;2.13;1.57;;;14.40;99.90;;;;;;4911440;29;20276;-72
2022/11/13 13:24:31;;;;;;;2.57;1.77;;;14.40;99.90;;;;;;4908638;29;20214;-73
2022/11/13 13:26:59;;;;;;;2.63;1.60;;;14.50;99.90;;;;;;4908311;29;20693;-73
2022/11/13 13:29:27;;;;;;;3.00;1.80;;;14.60;99.90;;;;;;4906274;29;20229;-78
2022/11/13 13:32:03;;;;;;;4.13;1.50;;;14.60;99.90;;;;;;4906734;29;20293;-76
2022/11/13 13:34:40;;;;;;;1.90;1.17;;;14.60;99.90;;;;;;4911009;29;20681;-74
2022/11/13 13:37:20;;;;;;;2.00;1.53;;;14.60;99.90;;;;;;4909335;29;20609;-74
2022/11/13 13:40:00;;;;;;;1.77;1.30;;;14.70;99.90;;;;;;4912712;29;20209;-77
2022/11/13 13:42:43;;;;;;;5.10;1.30;;;14.80;99.90;;;;;;4907719;29;20893;-79
2022/11/13 13:45:21;;;;;;;1.87;1.10;;;14.80;99.90;;;;;;4899627;29;20232;-70
2022/11/13 13:47:50;;;;;;;2.07;1.30;;;14.70;99.90;;;;;;4909827;29;20210;-76
2022/11/13 13:50:20;;;;;;;2.90;1.20;;;14.70;99.90;;;;;;4910788;29;20210;-72
2022/11/13 13:52:47;;;;;;;1.67;1.37;;;14.60;99.90;;;;;;4909343;29;20612;-71
2022/11/13 13:55:23;;;;;;;1.40;0.97;;;14.50;99.90;;;;;;4905973;29;20422;-70
2022/11/13 13:57:50;;;;;;;1.07;0.93;;;14.60;99.90;;;;;;4914615;29;20213;-70
2022/11/13 14:00:19;;;;;;;1.83;1.10;;;14.60;99.90;;;;;;4914282;29;20220;-70
2022/11/13 14:02:48;;;;;;;3.07;1.10;;;14.70;99.90;;;;;;4914785;29;20237;-70
2022/11/13 14:05:29;;;;;;;1.10;0.83;;;14.80;99.90;;;;;;4914542;29;20236;-71
2022/11/13 14:07:56;;;;;;;1.53;1.10;;;14.80;99.90;;;;;;4928011;29;20311;-72
2022/11/13 14:10:27;;;;;;;2.37;1.30;;;14.80;99.90;;;;;;4927330;29;20227;-70
2022/11/13 14:12:55;;;;;;;1.67;1.00;;;14.80;99.90;;;;;;4916724;29;20214;-71
2022/11/13 14:15:27;;;;;;;1.10;1.00;;;14.80;99.90;;;;;;4915985;29;20230;-71
2022/11/13 14:18:05;;;;;;;1.63;0.97;;;14.80;99.90;;;;;;4916847;29;20210;-72
2022/11/13 14:20:39;;;;;;;2.00;1.33;;;14.80;99.90;;;;;;4916235;29;20231;-71
2022/11/13 14:23:08;;;;;;;1.80;1.03;;;14.70;99.90;;;;;;4915730;29;20210;-71
2022/11/13 14:25:37;;;;;;;1.90;1.10;;;14.70;99.90;;;;;;4916040;29;20605;-70
2022/11/13 14:28:04;;;;;;;2.50;1.40;;;14.70;99.90;;;;;;4916002;29;20573;-70
2022/11/13 14:30:31;;;;;;;1.90;1.30;;;14.70;99.90;;;;;;4910165;29;20300;-71
2022/11/13 14:33:01;;;;;;;2.80;1.20;;;14.70;99.90;;;;;;4915968;29;20201;-71
2022/11/13 14:35:28;;;;;;;2.20;1.20;;;14.60;99.90;;;;;;4915759;29;20232;-72
2022/11/13 14:37:57;;;;;;;3.90;1.50;;;14.60;99.90;;;;;;4914962;29;20612;-67
2022/11/13 14:40:26;;;;;;;2.73;1.50;;;14.60;99.90;;;;;;4915755;29;20218;-71
2022/11/13 14:42:57;;;;;;;2.63;1.30;;;14.60;99.90;;;;;;4915936;29;20201;-71
2022/11/13 14:45:26;;;;;;;2.07;1.40;;;14.60;99.90;;;;;;4915546;29;20236;-72
2022/11/13 14:47:57;;;;;;;2.43;1.40;;;14.60;99.90;;;;;;4915646;29;20213;-72
2022/11/13 14:50:27;;;;;;;4.23;2.17;;;14.60;99.90;;;;;;4909435;29;20221;-72
2022/11/13 14:52:59;;;;;;;2.47;1.50;;;14.70;99.90;;;;;;4915857;29;20560;-70
2022/11/13 14:55:28;;;;;;;4.67;1.53;;;14.70;99.90;;;;;;4916453;29;20252;-72
2022/11/13 14:57:56;;;;;;;2.37;1.40;;;14.80;99.90;;;;;;4915519;29;20209;-71
2022/11/13 15:00:30;;;;;;;3.23;1.50;;;14.70;99.90;;;;;;4914806;29;20672;-72
2022/11/13 15:02:58;;;;;;;3.00;1.70;;;14.60;99.90;;;;;;4916000;29;20201;-71
2022/11/13 15:05:25;;;;;;;4.07;2.13;;;14.40;99.90;;;;;;4915779;29;20248;-72
2022/11/13 15:07:54;;;;;;;2.33;1.50;;;14.30;99.90;;;;;;4915372;29;20224;-71
2022/11/13 15:10:23;;;;;;;3.20;1.60;;;14.30;99.90;;;;;;4915371;29;20244;-72
2022/11/13 15:12:50;;;;;;;2.37;1.50;;;14.10;99.90;;;;;;4915272;29;20210;-72
2022/11/13 15:15:19;;;;;;;3.77;1.50;;;14.10;99.90;;;;;;4914816;29;20626;-72
2022/11/13 15:17:49;;;;;;;2.63;1.57;;;14.10;99.90;;;;;;4915142;29;20217;-71
2022/11/13 15:20:18;;;;;;;2.17;1.43;;;14.00;99.90;;;;;;4915049;29;20210;-70
2022/11/13 15:22:45;;;;;;;3.07;1.70;;;13.90;99.90;;;;;;4915208;29;20213;-72
2022/11/13 15:25:15;;;;;;;2.73;1.53;;;13.80;99.90;;;;;;4915407;29;20746;-72
2022/11/13 15:27:42;;;;;;;4.00;1.97;;;13.70;99.90;;;;;;4914914;29;20209;-70
2022/11/13 15:30:10;;;;;;;3.23;2.03;;;13.60;99.90;;;;;;4914532;29;20237;-71
2022/11/13 15:32:39;;;;;;;2.50;1.80;;;13.50;99.90;;;;;;4909093;29;20210;-71
2022/11/13 15:35:10;;;;;;;4.17;1.83;;;13.30;99.90;;;;;;4896674;29;20233;-73
2022/11/13 15:37:37;;;;;;;4.07;2.27;;;13.20;99.90;;;;;;4904918;29;20205;-73
2022/11/13 15:40:05;;;;;;;3.40;1.80;;;13.10;99.90;;;;;;4915178;29;20297;-72
2022/11/13 15:42:33;;;;;;;2.63;1.67;;;13.00;99.90;;;;;;4915247;29;20217;-71
2022/11/13 15:45:00;;;;;;;2.90;1.80;;;12.90;99.90;;;;;;4914573;29;20674;-72
2022/11/13 15:47:30;;;;;;;4.50;2.40;;;12.80;99.90;;;;;;4916411;29;20213;-71
2022/11/13 15:49:58;;;;;;;7.53;4.20;;;12.60;99.90;;;;;;4918968;29;20233;-71
2022/11/13 15:52:29;;;;;;;5.10;2.53;;;12.40;99.90;;;;;;4918902;29;20213;-72
2022/11/13 15:54:57;;;;;;;3.87;2.10;;;12.20;99.90;;;;;;4919319;29;20213;-71
2022/11/13 15:57:25;;;;;;;3.63;2.17;;;12.10;99.90;;;;;;4920636;29;20564;-72
2022/11/13 15:59:52;;;;;;;3.57;2.03;;;11.90;99.90;;;;;;4919878;29;20221;-71
2022/11/13 16:02:19;;;;;;;3.60;1.63;;;11.70;99.90;;;;;;4920367;29;20221;-72
2022/11/13 16:04:46;;;;;;;1.73;1.50;;;11.60;99.90;;;;;;4919738;29;20215;-73
2022/11/13 16:07:18;;;;;;;4.13;1.47;;;11.40;99.90;;;;;;4919972;29;20300;-69
2022/11/13 16:09:45;;;;;;;4.93;1.80;;;11.30;99.90;;;;;;4919774;29;20711;-71
2022/11/13 16:12:15;;;;;;;2.27;1.50;;;11.20;99.90;;;;;;4919807;29;20205;-71
2022/11/13 16:14:42;;;;;;;4.83;2.20;;;11.00;99.90;;;;;;4919801;29;20205;-71
2022/11/13 16:17:12;;;;;;;4.80;2.00;;;10.90;99.90;;;;;;4919912;29;20305;-71
2022/11/13 16:19:40;;;;;;;3.87;2.03;;;10.80;99.90;;;;;;4919947;29;20220;-70
2022/11/13 16:22:18;;;;;;;3.83;1.90;;;10.70;99.90;;;;;;4919767;29;20220;-72
2022/11/13 16:24:45;;;;;;;2.80;1.80;;;10.60;99.90;;;;;;4919783;29;20640;-73
2022/11/13 16:27:15;;;;;;;6.23;2.53;;;10.50;99.90;;;;;;4919857;29;20206;-71
2022/11/13 16:29:42;;;;;;;4.37;1.93;;;10.50;99.90;;;;;;4919381;29;20796;-73
2022/11/13 16:32:15;;;;;;;4.60;2.27;;;10.30;99.90;;;;;;4914293;29;20205;-70
2022/11/13 16:34:42;;;;;;;4.90;2.20;;;10.20;99.90;;;;;;4919531;29;20221;-72
2022/11/13 16:37:14;;;;;;;4.70;2.50;;;10.10;99.90;;;;;;4919706;29;20569;-73
2022/11/13 16:39:43;;;;;;;7.40;2.83;;;10.00;99.90;;;;;;4919584;29;20272;-72
2022/11/13 16:42:10;;;;;;;5.17;2.73;;;9.90;99.90;;;;;;4919180;29;20244;-72
2022/11/13 16:44:38;;;;;;;6.30;2.67;;;9.80;99.90;;;;;;4919272;29;20648;-72
2022/11/13 16:47:05;;;;;;;6.77;2.97;;;9.80;99.90;;;;;;4919562;29;20233;-73
2022/11/13 16:49:32;;;;;;;5.10;2.47;;;9.70;99.90;;;;;;4919294;29;20276;-71
2022/11/13 16:51:59;;;;;;;6.13;2.57;;;9.70;99.90;;;;;;4918966;29;20209;-71
2022/11/13 16:54:26;;;;;;;4.70;2.43;;;9.60;99.90;;;;;;4919119;29;20236;-73
2022/11/13 16:56:54;;;;;;;6.27;3.00;;;9.50;99.90;;;;;;4918782;29;20230;-72
2022/11/13 16:59:22;;;;;;;5.70;2.93;;;9.40;99.90;;;;;;4917825;29;20260;-73
2022/11/13 17:01:53;;;;;;;8.70;3.40;;;9.40;99.90;;;;;;4918542;29;20214;-70
2022/11/13 17:04:20;;;;;;;8.10;3.43;;;9.30;99.90;;;;;;4918820;29;20545;-73
2022/11/13 17:06:47;;;;;;;8.97;3.60;;;9.20;99.90;;;;;;4918929;29;20317;-71
2022/11/13 17:09:14;;;;;;;6.77;3.83;;;9.00;99.90;;;;;;4918884;29;20237;-72
2022/11/13 17:11:41;;;;;;;9.07;4.33;;;9.00;99.90;;;;;;4918438;29;20220;-71
2022/11/13 17:14:11;;;;;;;7.47;4.00;;;8.90;99.90;;;;;;4919062;29;20231;-73
2022/11/13 17:16:38;;;;;;;8.03;3.97;;;8.80;99.90;;;;;;4918962;29;20229;-72
2022/11/13 17:19:05;;;;;;;9.13;3.90;;;8.80;99.90;;;;;;4919165;29;20249;-72
2022/11/13 17:21:32;;;;;;;7.13;3.73;;;8.80;99.90;;;;;;4918425;29;20669;-72
2022/11/13 17:24:00;;;;;;;7.67;4.07;;;8.70;99.90;;;;;;4918023;29;20244;-72
2022/11/13 17:26:28;;;;;;;12.03;5.37;;;8.60;99.90;;;;;;4918161;29;20221;-72
2022/11/13 17:28:57;;;;;;;9.07;3.83;;;8.50;99.90;;;;;;4918595;29;20216;-70
2022/11/13 17:31:25;;;;;;;11.17;4.63;;;8.50;99.90;;;;;;4918304;29;20237;-71
2022/11/13 17:33:52;;;;;;;8.43;4.87;;;8.40;99.90;;;;;;4918671;29;20736;-71
2022/11/13 17:36:19;;;;;;;11.80;5.87;;;8.30;99.90;;;;;;4918482;29;20558;-71
2022/11/13 17:38:46;;;;;;;9.70;5.10;;;8.30;99.90;;;;;;4918390;29;20212;-72
2022/11/13 17:41:14;;;;;;;12.13;6.13;;;8.30;99.90;;;;;;4918973;29;20247;-72
2022/11/13 17:43:42;;;;;;;13.10;6.70;;;8.20;99.90;;;;;;4918727;29;20244;-69
2022/11/13 17:46:11;;;;;;;12.63;6.20;;;8.20;99.90;;;;;;4918105;29;20253;-71
2022/11/13 17:48:40;;;;;;;11.73;6.73;;;8.20;99.90;;;;;;4918362;29;20214;-71
2022/11/13 17:51:09;;;;;;;14.17;7.30;;;8.20;99.90;;;;;;4918183;29;20241;-71
2022/11/13 17:53:36;;;;;;;13.77;7.00;;;8.10;99.90;;;;;;4917970;29;20220;-73
2022/11/13 17:56:06;;;;;;;14.73;6.40;;;8.00;99.90;;;;;;4917986;29;20943;-70
2022/11/13 17:58:39;;;;;;;14.80;7.00;;;8.00;99.90;;;;;;4917979;29;20218;-71
2022/11/13 18:01:07;;;;;;;13.63;8.07;;;7.90;99.90;;;;;;4917860;29;20213;-72
2022/11/13 18:03:35;;;;;;;15.77;8.33;;;7.80;99.90;;;;;;4917870;29;20320;-72
2022/11/13 18:06:05;;;;;;;14.63;7.90;;;7.80;99.90;;;;;;4917539;29;20229;-72
2022/11/13 18:08:33;;;;;;;15.10;7.03;;;7.70;99.90;;;;;;4918194;29;20216;-71
2022/11/13 18:10:59;;;;;;;15.67;7.93;;;7.70;99.90;;;;;;4917810;29;20241;-72
2022/11/13 18:13:26;;;;;;;18.90;8.70;;;7.60;99.90;;;;;;4918031;29;20538;-70
2022/11/13 18:15:53;;;;;;;17.53;8.90;;;7.60;99.90;;;;;;4917698;29;20320;-73
2022/11/13 18:18:20;;;;;;;16.30;7.67;;;7.50;99.90;;;;;;4917822;29;20231;-72
2022/11/13 18:20:47;;;;;;;15.17;8.23;;;7.50;99.90;;;;;;4917820;29;20214;-71
2022/11/13 18:23:16;;;;;;;17.93;8.27;;;7.50;99.90;;;;;;4917280;29;20687;-71
2022/11/13 18:25:42;;;;;;;16.40;8.17;;;7.40;99.90;;;;;;4917300;29;20232;-67
2022/11/13 18:28:09;;;;;;;16.13;7.73;;;7.40;99.90;;;;;;4917687;29;20206;-72
2022/11/13 18:30:38;;;;;;;17.60;9.87;;;7.30;99.90;;;;;;4917393;29;20243;-73
2022/11/13 18:33:05;;;;;;;14.60;8.20;;;7.30;99.90;;;;;;4917484;29;20258;-72
2022/11/13 18:35:31;;;;;;;19.23;9.70;;;7.30;99.90;;;;;;4917469;29;20234;-69
2022/11/13 18:37:58;;;;;;;18.60;9.37;;;7.30;99.90;;;;;;4917677;29;20209;-72
2022/11/13 18:40:26;;;;;;;22.33;9.67;;;7.30;99.90;;;;;;4917450;29;20213;-71
2022/11/13 18:42:53;;;;;;;22.97;10.67;;;7.30;99.90;;;;;;4917406;29;20205;-72
2022/11/13 18:45:20;;;;;;;20.07;10.60;;;7.30;99.90;;;;;;4916985;29;20260;-73
2022/11/13 18:47:47;;;;;;;25.23;11.40;;;7.20;99.90;;;;;;4917103;29;20217;-72
2022/11/13 18:50:13;;;;;;;22.00;11.30;;;7.10;99.90;;;;;;4917332;29;20237;-72
2022/11/13 18:52:40;;;;;;;19.70;11.23;;;7.20;99.90;;;;;;4917311;29;20216;-70
2022/11/13 18:55:08;;;;;;;20.03;9.60;;;7.10;99.90;;;;;;4917124;29;20238;-71
2022/11/13 18:57:36;;;;;;;23.20;11.57;;;7.10;99.90;;;;;;4917111;29;20214;-73
2022/11/13 19:00:04;;;;;;;19.83;10.03;;;7.00;99.90;;;;;;4917002;29;20222;-71
2022/11/13 19:02:31;;;;;;;18.57;10.03;;;7.00;99.90;;;;;;4917410;29;20222;-71
2022/11/13 19:04:58;;;;;;;20.80;11.13;;;6.90;99.90;;;;;;4917196;29;20215;-74
2022/11/13 19:07:25;;;;;;;22.87;11.07;;;6.90;99.90;;;;;;4917216;29;20214;-72
2022/11/13 19:09:51;;;;;;;26.83;12.17;;;6.90;99.90;;;;;;4917067;29;20238;-73
2022/11/13 19:12:18;;;;;;;22.30;11.03;;;6.90;99.90;;;;;;4916847;29;20305;-71
2022/11/13 19:14:46;;;;;;;21.30;11.50;;;6.90;99.90;;;;;;4916317;29;20209;-72
2022/11/13 19:17:13;;;;;;;20.53;10.93;;;6.90;99.90;;;;;;4917269;29;20209;-73
2022/11/13 19:19:41;;;;;;;24.17;11.90;;;6.90;99.90;;;;;;4916897;29;20213;-71
2022/11/13 19:22:08;;;;;;;19.47;11.27;;;6.80;99.90;;;;;;4916904;29;20209;-70
2022/11/13 19:24:35;;;;;;;27.03;12.63;;;6.70;99.90;;;;;;4916778;29;20215;-71
2022/11/13 19:27:01;;;;;;;21.47;12.33;;;6.70;99.90;;;;;;4916628;29;20298;-69
2022/11/13 19:29:28;;;;;;;24.63;11.87;;;6.60;99.90;;;;;;4916463;29;20217;-70
2022/11/13 19:31:56;;;;;;;19.83;11.33;;;6.60;99.90;;;;;;4916619;29;20656;-70
2022/11/13 19:34:23;;;;;;;19.07;11.70;;;6.50;99.90;;;;;;4916476;29;20216;-70
2022/11/13 19:36:51;;;;;;;21.77;11.13;;;6.50;99.90;;;;;;4916234;29;20237;-70
2022/11/13 19:39:18;;;;;;;24.07;12.17;;;6.60;99.90;;;;;;4916461;29;20269;-71
2022/11/13 19:41:45;;;;;;;21.87;11.03;;;6.50;99.90;;;;;;4916459;29;20312;-70
2022/11/13 19:44:12;;;;;;;18.10;10.43;;;6.50;99.90;;;;;;4916377;29;20278;-69
2022/11/13 19:46:39;;;;;;;21.50;10.83;;;6.40;99.90;;;;;;4916204;29;20225;-70
2022/11/13 19:49:07;;;;;;;21.43;11.03;;;6.50;99.90;;;;;;4912347;29;20211;-70
2022/11/13 19:51:34;;;;;;;23.43;12.00;;;6.50;99.90;;;;;;4895742;29;20724;-70
2022/11/13 19:54:01;;;;;;;23.40;11.50;;;6.40;99.90;;;;;;4907467;29;20252;-73
2022/11/13 19:56:28;;;;;;;20.30;11.13;;;6.40;99.90;;;;;;4903157;29;20237;-73
2022/11/13 20:04:09;;;;;;;23.17;12.83;;;6.40;99.90;;;;;;3038630;23;20236;-76
2022/11/13 20:06:36;;;;;;;25.47;12.33;;;6.40;99.90;;;;;;4908000;29;20875;-72
2022/11/13 20:09:03;;;;;;;22.43;11.97;;;6.30;99.90;;;;;;4903403;29;20203;-72
2022/11/13 20:11:31;;;;;;;25.63;12.90;;;6.30;99.90;;;;;;4911110;29;20311;-75
2022/11/13 20:13:58;;;;;;;22.83;12.17;;;6.20;99.90;;;;;;4912905;29;20212;-73
2022/11/13 20:16:25;;;;;;;23.63;12.57;;;6.10;99.90;;;;;;4914702;29;20595;-73
2022/11/13 20:18:53;;;;;;;23.10;12.20;;;6.10;99.90;;;;;;4904558;29;20228;-75
2022/11/13 20:21:24;;;;;;;25.80;12.93;;;6.10;99.90;;;;;;4911730;29;20238;-77
2022/11/13 20:23:52;;;;;;;30.70;14.77;;;6.10;99.90;;;;;;4912479;29;20210;-72
2022/11/13 20:26:19;;;;;;;27.50;13.03;;;6.10;99.90;;;;;;4912599;29;20210;-72
2022/11/13 20:28:46;;;;;;;26.80;13.93;;;6.00;99.90;;;;;;4911175;29;20210;-73
2022/11/13 20:31:18;;;;;;;25.73;12.27;;;6.00;99.90;;;;;;4907456;29;20237;-76
2022/11/13 20:33:45;;;;;;;24.73;12.43;;;6.00;99.90;;;;;;4915459;29;20696;-73
2022/11/13 20:36:13;;;;;;;23.13;13.03;;;6.00;99.90;;;;;;4919151;29;20205;-72
2022/11/13 20:38:42;;;;;;;24.07;12.47;;;5.90;99.90;;;;;;4919301;29;20218;-73
2022/11/13 20:41:11;;;;;;;30.30;13.73;;;5.90;99.90;;;;;;4919056;29;20236;-73
2022/11/13 20:43:37;;;;;;;26.93;13.53;;;5.80;99.90;;;;;;4919010;29;20212;-74
2022/11/13 20:46:05;;;;;;;29.40;13.60;;;5.80;99.90;;;;;;4919468;29;20209;-76
2022/11/13 20:48:33;;;;;;;22.67;12.97;;;5.80;99.90;;;;;;4919073;29;20683;-73
2022/11/13 20:51:05;;;;;;;24.23;13.40;;;5.70;99.90;;;;;;4918971;29;20241;-74
2022/11/13 20:53:32;;;;;;;19.57;11.77;;;5.70;99.90;;;;;;4918748;29;20561;-75
2022/11/13 20:56:01;;;;;;;23.40;12.77;;;5.70;99.90;;;;;;4918897;29;20209;-72
2022/11/13 20:58:27;;;;;;;19.97;11.43;;;5.70;99.90;;;;;;4918793;29;20209;-73
2022/11/13 21:01:01;;;;;;;24.20;13.63;;;5.70;99.90;;;;;;4918703;29;20213;-72
2022/11/13 21:03:28;;;;;;;20.50;11.43;;;5.70;99.90;;;;;;4918754;29;20265;-76
2022/11/13 21:05:55;;;;;;;23.70;11.80;;;5.70;99.90;;;;;;4918596;29;20222;-72
2022/11/13 21:08:22;;;;;;;19.70;11.60;;;5.70;99.90;;;;;;4918853;29;20216;-72
2022/11/13 21:10:48;;;;;;;22.73;10.80;;;5.70;99.90;;;;;;4918410;29;20229;-73
2022/11/13 21:13:17;;;;;;;22.93;11.80;;;5.70;99.90;;;;;;4918753;29;20213;-73
2022/11/13 21:15:44;;;;;;;20.20;11.90;;;5.60;99.90;;;;;;4918714;29;20209;-76
2022/11/13 21:18:10;;;;;;;22.17;11.47;;;5.60;99.90;;;;;;4918820;29;20216;-72
2022/11/13 21:20:37;;;;;;;23.20;11.57;;;5.60;99.90;;;;;;4918352;29;20225;-73
2022/11/13 21:23:04;;;;;;;21.30;11.97;;;5.60;99.90;;;;;;4918539;29;20206;-73
2022/11/13 21:25:31;;;;;;;23.30;11.87;;;5.60;99.90;;;;;;4918172;29;20573;-74
2022/11/13 21:27:58;;;;;;;26.33;11.10;;;5.60;99.90;;;;;;4917984;29;20630;-78
2022/11/13 21:30:26;;;;;;;19.63;11.73;;;5.70;99.90;;;;;;4918509;29;20252;-76
2022/11/13 21:32:53;;;;;;;20.10;11.10;;;5.70;99.90;;;;;;4918173;29;20222;-72
2022/11/13 21:35:20;;;;;;;23.23;11.03;;;5.70;99.90;;;;;;4918139;29;20209;-72
2022/11/13 21:37:46;;;;;;;19.40;10.40;;;5.60;99.90;;;;;;4917607;29;20621;-76
2022/11/13 21:40:14;;;;;;;18.37;10.83;;;5.60;99.90;;;;;;4918197;29;20665;-74
2022/11/13 21:42:41;;;;;;;19.53;10.10;;;5.60;99.90;;;;;;4918269;29;20281;-75
2022/11/13 21:45:08;;;;;;;21.80;11.00;;;5.60;99.90;;;;;;4917632;29;20209;-77
2022/11/13 21:47:37;;;;;;;19.53;10.37;;;5.60;99.90;;;;;;4917767;29;20212;-72
2022/11/13 21:50:04;;;;;;;16.20;9.80;;;5.60;99.90;;;;;;4917603;29;20679;-73
2022/11/13 21:52:31;;;;;;;21.23;11.00;;;5.50;99.90;;;;;;4917901;29;20240;-76
2022/11/13 21:54:57;;;;;;;19.27;10.50;;;5.50;99.90;;;;;;4917981;29;20218;-75
2022/11/13 21:57:25;;;;;;;21.53;10.27;;;5.50;99.90;;;;;;4918195;29;20676;-77
2022/11/13 21:59:52;;;;;;;21.50;10.17;;;5.40;99.90;;;;;;4917876;29;20214;-78
2022/11/13 22:02:19;;;;;;;18.57;10.30;;;5.50;99.90;;;;;;4917803;29;20237;-75